Terminal Aerodrome Forecast
Issued by NWS

Home | Current Version | Previous Version | Text Only | Print | Product List | Glossary Off
Versions: 1 2 3 4 5 6 7 8 9 10 11 12 13 14 15 16

000
FTUS43 KICT 191120
TAFRSL
TAF
KRSL 191120Z 1912/2012 31008KT P6SM SCT250
     FM191600 34010KT P6SM SCT250
     FM192200 08005KT P6SM SCT250
     FM200200 16007KT P6SM SCT250=

USA.gov is the U.S. government's official web portal to all federal, state and local government web resources and services.